Flight Track Log - Related Links

Times and Time Zones

All times are in EDT time to prevent confusion due to time zone crossing. See the CNS313 flight status page for this flight to view local times or setup timezone preferences in your user account.

Time Position Orientation Groundspeed Altitude Reporting Facility
EDT Latitude Longitude Course Direction KTS MPH feet Rate Location/Type
Thu 05:34:40 PM 41.2392 -72.1475 80° East 255 293 11,500  Level Boston Center
Thu 05:35:40 PM 41.2514 -72.0536 80° East 255 293 11,500  Level Boston Center
Thu 05:36:40 PM 41.2594 -71.9597 83° East 255 293 11,500 -50 Level Boston Center
Thu 05:37:40 PM 41.2694 -71.8683 82° East 250 288 11,400 -50 Descending Boston Center
Thu 05:38:40 PM 41.2814 -71.7661 81° East 250 288 11,400  Level Boston Center
Thu 05:39:40 PM 41.2892 -71.6831 83° East 257 296 11,400 -100 Level Boston Center
Thu 05:40:40 PM 41.3008 -71.5781 82° East 257 296 11,200 -467 Descending Boston Center
Thu 05:41:10 PM 41.3025 -71.5283 87° East 266 306 10,700 -900 Descending Boston Center
Thu 05:41:40 PM 41.3086 -71.4894 78° East 257 296 10,300 -933 Descending Boston Center
Thu 05:42:40 PM 41.3181 -71.3844 83° East 262 302 9,300 -1,043 Descending Boston Center
Thu 05:43:12 PM 41.3217 -71.3372 84° East 250 288 8,700 -1,097 Descending Boston Center
Thu 05:44:13 PM 41.3311 -71.2431 82° East 238 274 7,600 -1,054 Descending Boston Center
Thu 05:45:40 PM 41.3464 -71.1183 81° East 238 274 6,100 -980 Descending Boston Center
Thu 05:46:40 PM 41.3536 -71.0269 84° East 238 274 5,200 -950 Descending Boston Center
Thu 05:47:40 PM 41.3692 -70.9408 76° East 233 268 4,200 -900 Descending Boston Center
Thu 05:48:40 PM 41.3911 -70.8547 71° East 233 268 3,400 -818 Descending Boston Center
Thu 05:49:52 PM 41.3939 -70.7661 88° East 234 269 2,400 -727 Descending Boston Center
Thu 05:50:52 PM 41.4031 -70.6800 82° East 223 257 1,800 -350 Descending Boston Center
Thu 05:51:52 PM 41.4336 -70.6319 50° Northeast 172 198 1,700 -250 Descending Boston Center
Thu 05:52:52 PM 41.4453 -70.5903 70° East 135 155 1,300 -600 Descending Boston Center
Thu 05:53:52 PM 41.4158 -70.5772 162° South 76 87 500 -800 Descending Boston Center
Thu 05:55:00 PM 41.3833 -70.6000 North  Level FlightAware
Thu 06:02:00 PM 41.3934 -70.6139 North  Level Estimated
Thu 06:03:00 PM 41.3934 -70.6139 North  Level Estimated
Thu 06:04:00 PM 41.3934 -70.6139 North  Level Estimated
Thu 06:05:00 PM 41.3934 -70.6139 North  Level Estimated
Thu 06:06:00 PM 41.3934 -70.6139 North  Level Estimated
Thu 06:07:00 PM 41.3934 -70.6139 North  Level Estimated
Thu 06:08:00 PM 41.3934 -70.6139 North  Level Estimated
Thu 06:09:00 PM 41.3934 -70.6139 North  Level Estimated
Thu 06:10:00 PM 41.3934 -70.6139 North  Level Estimated

Login

Don't have an account? Register now (free) for customized features, flight alerts, and more!